createdAt,value
2023-05-14T00:00:04.180Z,11.75
2023-05-14T00:02:30.951Z,11.71
2023-05-14T00:04:57.568Z,11.69
2023-05-14T00:07:30.752Z,11.66
2023-05-14T00:09:58.609Z,11.60
2023-05-14T00:12:26.383Z,11.51
2023-05-14T00:14:53.740Z,11.41
2023-05-14T00:17:20.442Z,11.38
2023-05-14T00:19:46.928Z,11.36
2023-05-14T00:22:13.601Z,11.27
2023-05-14T00:24:40.091Z,11.23
2023-05-14T00:27:07.343Z,11.13
2023-05-14T00:29:34.213Z,11.03
2023-05-14T00:32:00.817Z,10.99
2023-05-14T00:34:27.381Z,11.02
2023-05-14T00:36:53.936Z,10.99
2023-05-14T00:39:20.584Z,10.93
2023-05-14T00:41:47.165Z,10.89
2023-05-14T00:44:13.706Z,10.80
2023-05-14T00:46:40.635Z,10.77
2023-05-14T00:49:07.282Z,10.78
2023-05-14T00:51:33.828Z,10.69
2023-05-14T00:54:00.792Z,10.74
2023-05-14T00:56:27.987Z,10.61
2023-05-14T00:58:54.617Z,10.55
2023-05-14T01:01:21.382Z,10.50
2023-05-14T01:03:49.043Z,10.51
2023-05-14T01:06:18.318Z,10.46
2023-05-14T01:08:53.773Z,10.44
2023-05-14T01:11:29.376Z,10.40
2023-05-14T01:14:21.278Z,10.45
2023-05-14T01:16:51.073Z,10.50
2023-05-14T01:19:41.480Z,10.37
2023-05-14T01:22:08.444Z,10.45
2023-05-14T01:24:35.063Z,10.33
2023-05-14T01:27:18.355Z,10.34
2023-05-14T01:29:52.866Z,10.29
2023-05-14T01:32:23.287Z,10.28
2023-05-14T01:34:51.033Z,10.51
2023-05-14T01:37:18.388Z,10.56
2023-05-14T01:39:45.833Z,10.53
2023-05-14T01:42:13.297Z,10.43
2023-05-14T01:44:39.974Z,10.52
2023-05-14T01:47:06.614Z,10.41
2023-05-14T01:49:33.230Z,10.54
2023-05-14T01:51:59.821Z,10.77
2023-05-14T01:54:26.401Z,10.80
2023-05-14T01:56:53.155Z,10.91
2023-05-14T01:59:19.806Z,11.00
2023-05-14T02:01:46.362Z,10.98
2023-05-14T02:04:13.027Z,11.06
2023-05-14T02:06:39.683Z,11.02
2023-05-14T02:09:06.362Z,11.14
2023-05-14T02:11:33.012Z,11.20
2023-05-14T02:13:59.596Z,11.21
2023-05-14T02:16:26.259Z,11.19
2023-05-14T02:18:52.985Z,11.22
2023-05-14T02:21:19.597Z,11.21
2023-05-14T02:23:46.144Z,11.16
2023-05-14T02:26:12.800Z,11.09
2023-05-14T02:28:39.426Z,11.11
2023-05-14T02:31:06.162Z,11.16
2023-05-14T02:33:32.879Z,11.15
2023-05-14T02:35:59.548Z,11.19
2023-05-14T02:38:26.520Z,11.27
2023-05-14T02:40:53.263Z,11.26
2023-05-14T02:43:19.823Z,11.23
2023-05-14T02:45:46.443Z,11.15
2023-05-14T02:48:13.165Z,11.11
2023-05-14T02:50:39.819Z,10.96
2023-05-14T02:53:06.420Z,10.91
2023-05-14T02:55:32.935Z,10.77
2023-05-14T02:57:59.568Z,10.56
2023-05-14T03:00:26.247Z,10.56
2023-05-14T03:02:53.459Z,10.39
2023-05-14T03:05:20.816Z,10.35
2023-05-14T03:07:47.408Z,10.35
2023-05-14T03:10:13.998Z,10.27
2023-05-14T03:12:40.644Z,10.19
2023-05-14T03:15:07.784Z,10.05
2023-05-14T03:17:34.325Z,10.02
2023-05-14T03:20:00.885Z,9.95
2023-05-14T03:22:27.651Z,9.91
2023-05-14T03:24:54.262Z,9.81
2023-05-14T03:27:21.134Z,9.79
2023-05-14T03:29:47.764Z,9.75
2023-05-14T03:32:15.017Z,9.62
2023-05-14T03:34:41.808Z,9.58
2023-05-14T03:37:08.341Z,9.54
2023-05-14T03:39:35.065Z,9.47
2023-05-14T03:42:01.946Z,9.41
2023-05-14T03:44:28.674Z,9.42
2023-05-14T03:46:55.895Z,9.43
2023-05-14T03:49:22.437Z,9.45
2023-05-14T03:51:48.992Z,9.42
2023-05-14T03:54:15.655Z,9.42
2023-05-14T03:56:42.407Z,9.39
2023-05-14T03:59:09.018Z,9.49
2023-05-14T04:01:35.564Z,9.53
2023-05-14T04:04:02.323Z,9.66
2023-05-14T04:06:29.081Z,9.62
2023-05-14T04:08:55.714Z,9.54
2023-05-14T04:11:22.330Z,9.41
2023-05-14T04:13:48.916Z,9.46
2023-05-14T04:16:15.490Z,9.43
2023-05-14T04:18:42.176Z,9.42
2023-05-14T04:21:08.803Z,9.50
2023-05-14T04:23:35.576Z,9.47
2023-05-14T04:26:02.421Z,9.45
2023-05-14T04:28:29.050Z,9.44
2023-05-14T04:30:55.690Z,9.43
2023-05-14T04:33:22.449Z,9.52
2023-05-14T04:35:49.073Z,9.61
2023-05-14T04:38:15.737Z,9.81
2023-05-14T04:40:42.857Z,9.88
2023-05-14T04:43:09.845Z,9.87
2023-05-14T04:45:36.726Z,9.93
2023-05-14T04:48:04.663Z,10.15
2023-05-14T04:50:31.462Z,10.46
2023-05-14T04:52:58.087Z,10.46
2023-05-14T04:55:24.709Z,10.61
2023-05-14T04:57:51.636Z,10.63
2023-05-14T05:00:19.295Z,10.69
2023-05-14T05:02:45.900Z,10.69
2023-05-14T05:05:12.509Z,10.70
2023-05-14T05:07:39.052Z,10.93
2023-05-14T05:10:06.285Z,11.20
2023-05-14T05:12:32.845Z,11.19
2023-05-14T05:14:59.386Z,11.17
2023-05-14T05:17:26.109Z,11.33
2023-05-14T05:19:52.975Z,11.39
2023-05-14T05:22:20.362Z,11.48
2023-05-14T05:24:49.784Z,11.53
2023-05-14T05:27:16.702Z,11.59
2023-05-14T05:29:44.495Z,11.50
2023-05-14T05:32:11.151Z,11.46
2023-05-14T05:34:37.736Z,11.30
2023-05-14T05:37:06.017Z,11.37
2023-05-14T05:39:34.931Z,11.61
2023-05-14T05:42:02.788Z,11.99
2023-05-14T05:44:29.434Z,12.28
2023-05-14T05:46:57.422Z,12.43
2023-05-14T05:49:24.196Z,12.80
2023-05-14T05:51:50.933Z,12.88
2023-05-14T05:54:17.463Z,13.23
2023-05-14T05:56:43.993Z,13.11
2023-05-14T05:59:10.541Z,13.12
2023-05-14T06:01:37.337Z,13.18
2023-05-14T06:04:06.383Z,13.11
2023-05-14T06:06:33.132Z,12.94
2023-05-14T06:09:01.783Z,13.24
2023-05-14T06:11:28.380Z,13.13
2023-05-14T06:13:54.990Z,13.24
2023-05-14T06:16:21.553Z,13.37
2023-05-14T06:18:48.765Z,13.46
2023-05-14T06:21:15.443Z,13.65
2023-05-14T06:23:42.117Z,13.97
2023-05-14T06:26:08.644Z,14.10
2023-05-14T06:28:35.285Z,14.15
2023-05-14T06:31:01.859Z,13.98
2023-05-14T06:33:31.558Z,13.75
2023-05-14T06:35:59.709Z,13.94
2023-05-14T06:38:26.665Z,13.58
2023-05-14T06:40:53.324Z,13.43
2023-05-14T06:43:19.949Z,13.30
2023-05-14T06:45:50.535Z,13.13
2023-05-14T06:48:21.213Z,13.18
2023-05-14T06:50:49.340Z,13.40
2023-05-14T06:53:16.080Z,13.80
2023-05-14T06:55:42.717Z,13.80
2023-05-14T06:58:09.899Z,14.01
2023-05-14T07:00:36.531Z,14.23
2023-05-14T07:03:03.209Z,14.64
2023-05-14T07:05:29.858Z,15.09
2023-05-14T07:07:56.505Z,14.97
2023-05-14T07:10:23.928Z,15.07
2023-05-14T07:12:50.809Z,15.06
2023-05-14T07:15:17.480Z,14.83
2023-05-14T07:17:44.072Z,14.85
2023-05-14T07:20:11.077Z,14.86
2023-05-14T07:22:37.594Z,15.13
2023-05-14T07:25:04.329Z,15.33
2023-05-14T07:27:30.875Z,15.73
2023-05-14T07:29:57.429Z,15.51
2023-05-14T07:32:25.256Z,15.43
2023-05-14T07:34:51.807Z,15.74
2023-05-14T07:37:18.848Z,15.83
2023-05-14T07:39:45.668Z,15.74
2023-05-14T07:42:19.306Z,16.35
2023-05-14T07:44:51.965Z,16.11
2023-05-14T07:47:18.634Z,15.90
2023-05-14T07:49:45.360Z,15.66
2023-05-14T07:52:12.074Z,15.83
2023-05-14T07:54:38.733Z,16.42
2023-05-14T07:57:05.352Z,15.98
2023-05-14T07:59:32.136Z,16.35
2023-05-14T08:01:58.659Z,16.85
2023-05-14T08:04:25.378Z,16.94
2023-05-14T08:06:52.015Z,17.44
2023-05-14T08:09:18.580Z,16.80
2023-05-14T08:11:45.138Z,16.57
2023-05-14T08:14:11.955Z,16.38
2023-05-14T08:16:38.961Z,15.79
2023-05-14T08:19:05.793Z,15.93
2023-05-14T08:21:32.834Z,16.54
2023-05-14T08:23:59.701Z,17.17
2023-05-14T08:26:26.504Z,17.67
2023-05-14T08:28:54.421Z,17.57
2023-05-14T08:31:21.119Z,17.01
2023-05-14T08:33:47.695Z,17.34
2023-05-14T08:36:14.243Z,17.65
2023-05-14T08:38:42.224Z,17.50
2023-05-14T08:41:11.660Z,17.60
2023-05-14T08:44:03.730Z,17.80
2023-05-14T08:46:31.874Z,17.96
2023-05-14T08:49:11.668Z,17.90
2023-05-14T08:51:38.664Z,17.77
2023-05-14T08:54:05.968Z,17.86
2023-05-14T08:56:33.528Z,18.53
2023-05-14T08:59:00.578Z,19.03
2023-05-14T09:01:28.021Z,19.24
2023-05-14T09:03:55.041Z,19.21
2023-05-14T09:06:22.586Z,19.62
2023-05-14T09:08:49.334Z,19.57
2023-05-14T09:11:15.842Z,19.95
2023-05-14T09:13:43.125Z,18.56
2023-05-14T09:16:09.891Z,17.72
2023-05-14T09:18:37.074Z,17.47
2023-05-14T09:21:04.498Z,18.42
2023-05-14T09:23:34.646Z,18.43
2023-05-14T09:26:05.612Z,17.41
2023-05-14T09:28:32.188Z,17.58
2023-05-14T09:30:58.682Z,18.08
2023-05-14T09:33:29.445Z,17.56
2023-05-14T09:36:00.651Z,18.47
2023-05-14T09:38:33.892Z,17.97
2023-05-14T09:41:00.954Z,18.13
2023-05-14T09:43:27.720Z,17.62
2023-05-14T09:45:54.262Z,17.42
2023-05-14T09:48:22.392Z,17.58
2023-05-14T09:50:49.166Z,17.95
2023-05-14T09:53:15.848Z,17.72
2023-05-14T09:55:42.473Z,18.50
2023-05-14T09:58:09.085Z,18.85
2023-05-14T10:00:36.372Z,18.42
2023-05-14T10:03:06.904Z,18.29
2023-05-14T10:05:37.343Z,18.16
2023-05-14T10:08:12.351Z,19.23
2023-05-14T10:10:39.407Z,18.73
2023-05-14T10:13:13.673Z,19.35
2023-05-14T10:15:42.405Z,18.97
2023-05-14T10:18:16.284Z,18.81
2023-05-14T10:20:44.699Z,18.95
2023-05-14T10:23:11.655Z,19.07
2023-05-14T10:25:39.110Z,19.19
2023-05-14T10:28:06.287Z,19.64
2023-05-14T10:30:33.038Z,19.74
2023-05-14T10:33:09.993Z,20.05
2023-05-14T10:35:59.699Z,19.85
2023-05-14T10:38:32.028Z,19.50
2023-05-14T10:41:12.009Z,19.17
2023-05-14T10:43:40.775Z,19.44
2023-05-14T10:46:08.881Z,19.05
2023-05-14T10:48:37.120Z,18.85
2023-05-14T10:51:03.842Z,18.19
2023-05-14T10:53:39.535Z,17.99
2023-05-14T10:56:10.065Z,18.25
2023-05-14T10:58:42.415Z,18.90
2023-05-14T11:01:11.262Z,19.41
2023-05-14T11:03:43.245Z,19.41
2023-05-14T11:06:11.648Z,19.66
2023-05-14T11:08:39.126Z,19.30
2023-05-14T11:11:06.928Z,19.78
2023-05-14T11:13:34.692Z,19.90
2023-05-14T11:16:15.136Z,21.01
2023-05-14T11:18:48.157Z,20.90
2023-05-14T11:21:14.792Z,21.16
2023-05-14T11:23:41.315Z,20.87
2023-05-14T11:26:07.963Z,20.67
2023-05-14T11:28:34.561Z,21.23
2023-05-14T11:31:01.396Z,21.70
2023-05-14T11:33:28.410Z,22.48
2023-05-14T11:35:54.941Z,21.26
2023-05-14T11:38:21.601Z,21.02
2023-05-14T11:40:58.721Z,20.31
2023-05-14T11:43:29.385Z,21.98
2023-05-14T11:45:56.639Z,22.68
2023-05-14T11:48:24.031Z,21.68
2023-05-14T11:50:52.941Z,22.05
2023-05-14T11:53:28.227Z,23.11
2023-05-14T11:55:55.193Z,22.02
2023-05-14T11:58:22.137Z,21.92
2023-05-14T12:00:53.529Z,21.60
2023-05-14T12:03:26.266Z,21.31
2023-05-14T12:05:59.498Z,21.07
2023-05-14T12:08:28.205Z,20.99
2023-05-14T12:10:55.143Z,20.21
2023-05-14T12:13:22.826Z,20.34
2023-05-14T12:15:56.222Z,20.17
2023-05-14T12:18:27.063Z,19.81
2023-05-14T12:20:53.795Z,19.55
2023-05-14T12:23:27.794Z,19.42
2023-05-14T12:25:54.525Z,19.90
2023-05-14T12:28:23.236Z,19.95
2023-05-14T12:30:56.483Z,21.07
2023-05-14T12:33:23.899Z,21.56
2023-05-14T12:35:50.496Z,21.70
2023-05-14T12:38:17.123Z,21.43
2023-05-14T12:40:43.673Z,22.57
2023-05-14T12:43:10.370Z,22.77
2023-05-14T12:45:37.174Z,22.61
2023-05-14T12:48:03.896Z,21.86
2023-05-14T12:50:30.559Z,21.79
2023-05-14T12:52:58.120Z,21.81
2023-05-14T12:55:24.764Z,21.71
2023-05-14T12:57:51.337Z,21.00
2023-05-14T13:00:18.211Z,21.57
2023-05-14T13:02:45.026Z,21.07
2023-05-14T13:05:12.513Z,21.27
2023-05-14T13:07:39.284Z,21.26
2023-05-14T13:10:06.843Z,21.01
2023-05-14T13:12:33.482Z,22.28
2023-05-14T13:15:00.088Z,22.60
2023-05-14T13:17:26.778Z,22.44
2023-05-14T13:19:53.556Z,22.18
2023-05-14T13:22:20.206Z,20.86
2023-05-14T13:24:46.949Z,21.10
2023-05-14T13:27:13.446Z,21.02
2023-05-14T13:29:40.036Z,20.44
2023-05-14T13:32:07.787Z,20.47
2023-05-14T13:34:34.464Z,21.01
2023-05-14T13:37:01.280Z,20.33
2023-05-14T13:39:27.934Z,20.37
2023-05-14T13:41:56.827Z,19.82
2023-05-14T13:44:23.818Z,19.99
2023-05-14T13:46:50.724Z,20.24
2023-05-14T13:49:17.471Z,20.43
2023-05-14T13:51:44.245Z,20.54
2023-05-14T13:54:10.955Z,20.48
2023-05-14T13:56:37.709Z,20.47
2023-05-14T13:59:04.384Z,20.27
2023-05-14T14:01:31.777Z,20.22
2023-05-14T14:03:58.523Z,21.98
2023-05-14T14:06:27.572Z,21.31
2023-05-14T14:08:54.217Z,21.62
2023-05-14T14:11:20.995Z,22.14
2023-05-14T14:13:47.589Z,20.86
2023-05-14T14:16:14.242Z,20.42
2023-05-14T14:18:41.423Z,20.40
2023-05-14T14:21:08.011Z,20.53
2023-05-14T14:23:34.568Z,21.39
2023-05-14T14:26:01.314Z,22.26
2023-05-14T14:28:27.957Z,23.36
2023-05-14T14:30:54.606Z,24.28
2023-05-14T14:33:21.244Z,24.25
2023-05-14T14:35:48.047Z,25.19
2023-05-14T14:38:14.639Z,24.16
2023-05-14T14:40:41.282Z,24.24
2023-05-14T14:43:07.858Z,22.45
2023-05-14T14:45:34.745Z,22.06
2023-05-14T14:48:27.483Z,20.71
2023-05-14T14:50:55.476Z,20.78
2023-05-14T14:53:22.963Z,21.33
2023-05-14T14:55:50.206Z,20.43
2023-05-14T14:58:18.735Z,20.65
2023-05-14T15:00:45.810Z,21.35
2023-05-14T15:03:12.576Z,21.11
2023-05-14T15:05:39.303Z,21.37
2023-05-14T15:08:06.068Z,22.34
2023-05-14T15:10:32.952Z,22.57
2023-05-14T15:12:59.997Z,21.65
2023-05-14T15:15:26.941Z,22.15
2023-05-14T15:17:53.703Z,21.95
2023-05-14T15:20:20.361Z,20.42
2023-05-14T15:22:47.214Z,20.15
2023-05-14T15:25:13.912Z,19.85
2023-05-14T15:27:40.534Z,18.95
2023-05-14T15:30:08.238Z,18.37
2023-05-14T15:32:34.877Z,17.82
2023-05-14T15:35:01.567Z,17.55
2023-05-14T15:37:28.369Z,17.01
2023-05-14T15:39:55.072Z,16.47
2023-05-14T15:42:21.665Z,16.34
2023-05-14T15:44:48.334Z,16.47
2023-05-14T15:47:14.857Z,16.35
2023-05-14T15:49:41.606Z,16.21
2023-05-14T15:52:08.333Z,16.22
2023-05-14T15:54:34.895Z,16.15
2023-05-14T15:57:01.450Z,16.01
2023-05-14T15:59:28.268Z,15.83
2023-05-14T16:01:54.897Z,15.78
2023-05-14T16:04:21.558Z,15.57
2023-05-14T16:06:48.214Z,15.75
2023-05-14T16:09:14.905Z,16.21
2023-05-14T16:11:41.613Z,16.43
2023-05-14T16:14:08.376Z,16.37
2023-05-14T16:16:36.182Z,16.33
2023-05-14T16:19:03.257Z,15.90
2023-05-14T16:21:29.966Z,15.32
2023-05-14T16:23:56.761Z,15.72
2023-05-14T16:26:23.417Z,16.51
2023-05-14T16:28:49.969Z,16.80
2023-05-14T16:31:16.711Z,16.84
2023-05-14T16:33:43.419Z,16.59
2023-05-14T16:36:10.087Z,16.65
2023-05-14T16:38:41.473Z,16.33
2023-05-14T16:41:14.928Z,16.77
2023-05-14T16:43:41.435Z,16.74
2023-05-14T16:46:08.154Z,16.88
2023-05-14T16:48:34.760Z,16.79
2023-05-14T16:51:01.497Z,17.51
2023-05-14T16:53:28.147Z,17.78
2023-05-14T16:55:54.768Z,17.69
2023-05-14T16:58:21.322Z,16.91
2023-05-14T17:00:47.868Z,16.89
2023-05-14T17:03:14.733Z,16.96
2023-05-14T17:05:41.365Z,17.13
2023-05-14T17:08:08.006Z,17.40
2023-05-14T17:10:35.903Z,17.23
2023-05-14T17:13:02.726Z,17.28
2023-05-14T17:15:29.492Z,16.49
2023-05-14T17:17:56.422Z,16.55
2023-05-14T17:20:23.161Z,16.29
2023-05-14T17:22:49.784Z,16.15
2023-05-14T17:25:16.445Z,15.95
2023-05-14T17:27:43.000Z,15.94
2023-05-14T17:30:10.048Z,15.41
2023-05-14T17:32:36.661Z,15.03
2023-05-14T17:35:03.504Z,15.30
2023-05-14T17:37:30.174Z,15.21
2023-05-14T17:39:56.830Z,14.96
2023-05-14T17:42:23.473Z,14.88
2023-05-14T17:44:50.114Z,14.66
2023-05-14T17:47:16.786Z,14.35
2023-05-14T17:49:43.618Z,14.26
2023-05-14T17:52:10.267Z,14.48
2023-05-14T17:54:37.021Z,14.10
2023-05-14T17:57:03.768Z,14.03
2023-05-14T17:59:30.308Z,14.02
2023-05-14T18:01:56.940Z,14.00
2023-05-14T18:04:23.479Z,14.08
2023-05-14T18:06:50.032Z,14.11
2023-05-14T18:09:16.624Z,14.19
2023-05-14T18:11:43.346Z,14.39
2023-05-14T18:14:10.170Z,14.16
2023-05-14T18:16:37.544Z,13.94
2023-05-14T18:19:04.650Z,13.84
2023-05-14T18:21:31.670Z,13.82
2023-05-14T18:23:58.219Z,13.96
2023-05-14T18:26:24.815Z,14.05
2023-05-14T18:28:51.590Z,13.94
2023-05-14T18:31:18.145Z,13.70
2023-05-14T18:33:44.694Z,13.66
2023-05-14T18:36:11.814Z,13.80
2023-05-14T18:38:38.452Z,13.93
2023-05-14T18:41:05.299Z,14.13
2023-05-14T18:43:32.060Z,13.63
2023-05-14T18:45:59.120Z,13.53
2023-05-14T18:48:26.385Z,13.33
2023-05-14T18:50:52.894Z,13.31
2023-05-14T18:53:19.437Z,13.12
2023-05-14T18:55:46.016Z,13.19
2023-05-14T18:58:12.740Z,13.16
2023-05-14T19:00:39.271Z,12.86
2023-05-14T19:03:06.124Z,12.97
2023-05-14T19:05:32.866Z,12.99
2023-05-14T19:07:59.556Z,13.12
2023-05-14T19:10:26.169Z,12.77
2023-05-14T19:12:52.736Z,12.51
2023-05-14T19:15:19.263Z,12.64
2023-05-14T19:17:45.957Z,12.59
2023-05-14T19:20:12.735Z,12.49
2023-05-14T19:22:39.250Z,12.80
2023-05-14T19:25:07.860Z,13.11
2023-05-14T19:27:37.100Z,12.61
2023-05-14T19:30:04.435Z,12.90
2023-05-14T19:32:30.985Z,13.05
2023-05-14T19:34:57.607Z,13.16
2023-05-14T19:37:24.244Z,13.17
2023-05-14T19:39:50.852Z,12.95
2023-05-14T19:42:17.531Z,12.90
2023-05-14T19:44:44.173Z,12.82
2023-05-14T19:47:10.915Z,12.87
2023-05-14T19:49:37.735Z,12.83
2023-05-14T19:52:04.513Z,12.89
2023-05-14T19:54:31.147Z,12.90
2023-05-14T19:56:57.726Z,12.87
2023-05-14T19:59:24.888Z,12.54
2023-05-14T20:01:51.877Z,12.83
2023-05-14T20:04:19.821Z,12.85
2023-05-14T20:06:47.183Z,12.81
2023-05-14T20:09:14.535Z,13.02
2023-05-14T20:11:41.167Z,12.95
2023-05-14T20:14:07.681Z,12.97
2023-05-14T20:16:34.332Z,12.81
2023-05-14T20:19:00.985Z,12.80
2023-05-14T20:21:27.507Z,12.75
2023-05-14T20:23:54.264Z,12.82
2023-05-14T20:26:21.265Z,12.92
2023-05-14T20:28:47.849Z,13.03
2023-05-14T20:31:14.465Z,12.95
2023-05-14T20:33:41.073Z,12.81
2023-05-14T20:36:07.642Z,12.74
2023-05-14T20:38:35.125Z,12.70
2023-05-14T20:41:01.739Z,12.67
2023-05-14T20:43:28.369Z,12.82
2023-05-14T20:45:57.172Z,12.39
2023-05-14T20:48:23.808Z,12.34
2023-05-14T20:50:50.327Z,12.37
2023-05-14T20:53:16.978Z,12.27
2023-05-14T20:55:44.757Z,12.23
2023-05-14T20:58:11.275Z,12.11
2023-05-14T21:00:38.010Z,12.13
2023-05-14T21:03:04.890Z,12.25
2023-05-14T21:05:32.296Z,12.36
2023-05-14T21:07:58.839Z,12.59
2023-05-14T21:10:25.779Z,12.32
2023-05-14T21:12:52.526Z,12.16
2023-05-14T21:15:19.139Z,12.19
2023-05-14T21:17:45.954Z,12.10
2023-05-14T21:20:15.486Z,12.03
2023-05-14T21:22:42.152Z,12.07
2023-05-14T21:25:09.058Z,12.12
2023-05-14T21:27:35.636Z,12.17
2023-05-14T21:30:02.357Z,12.17
2023-05-14T21:32:29.049Z,12.30
2023-05-14T21:34:56.287Z,12.37
2023-05-14T21:37:22.923Z,12.27
2023-05-14T21:39:49.551Z,12.32
2023-05-14T21:42:16.376Z,12.13
2023-05-14T21:44:42.932Z,12.25
2023-05-14T21:47:09.477Z,11.97
2023-05-14T21:49:36.033Z,12.10
2023-05-14T21:52:03.066Z,12.13
2023-05-14T21:54:29.734Z,12.31
2023-05-14T21:56:56.552Z,12.07
2023-05-14T21:59:23.097Z,12.06
2023-05-14T22:02:06.178Z,12.12
2023-05-14T22:04:33.826Z,12.22
2023-05-14T22:07:00.539Z,12.09
2023-05-14T22:09:27.417Z,12.19
2023-05-14T22:11:53.995Z,12.20
2023-05-14T22:14:20.539Z,12.08
2023-05-14T22:16:47.284Z,12.39
2023-05-14T22:19:16.504Z,12.56
2023-05-14T22:21:43.254Z,12.46
2023-05-14T22:24:09.828Z,12.31
2023-05-14T22:26:36.348Z,12.31
2023-05-14T22:29:02.995Z,12.16
2023-05-14T22:31:30.145Z,12.18
2023-05-14T22:33:56.713Z,12.10
2023-05-14T22:36:23.329Z,11.98
2023-05-14T22:38:49.846Z,11.97
2023-05-14T22:41:17.660Z,12.11
2023-05-14T22:43:44.293Z,12.13
2023-05-14T22:46:10.919Z,12.04
2023-05-14T22:48:37.572Z,11.96
2023-05-14T22:51:04.310Z,12.07
2023-05-14T22:53:30.978Z,11.97
2023-05-14T22:55:57.575Z,11.88
2023-05-14T22:58:24.358Z,11.89
2023-05-14T23:00:50.908Z,11.85
2023-05-14T23:03:17.439Z,11.81
2023-05-14T23:05:43.998Z,11.70
2023-05-14T23:08:10.949Z,11.85
2023-05-14T23:10:37.473Z,11.80
2023-05-14T23:13:04.645Z,11.74
2023-05-14T23:15:31.663Z,11.81
2023-05-14T23:17:58.596Z,11.73
2023-05-14T23:20:25.233Z,11.81
2023-05-14T23:22:52.188Z,12.09
2023-05-14T23:25:18.750Z,11.78
2023-05-14T23:27:45.618Z,11.75
2023-05-14T23:30:12.514Z,11.74
2023-05-14T23:32:39.086Z,11.86
2023-05-14T23:35:05.758Z,11.89
2023-05-14T23:37:33.615Z,11.70
2023-05-14T23:40:00.207Z,11.77
2023-05-14T23:42:26.658Z,12.00
2023-05-14T23:44:53.105Z,11.88
2023-05-14T23:47:19.697Z,11.69
2023-05-14T23:49:46.188Z,11.83
2023-05-14T23:52:12.753Z,11.98
2023-05-14T23:54:39.378Z,11.86
2023-05-14T23:57:06.128Z,11.72
2023-05-14T23:59:32.694Z,11.74
